^^
Your Local Weather - Clay, NY Station Historical Data
Daily Summary for February 17, 2018 Units:  Both    English   Metric
« Previous Day
Next Day »
Daily Weekly Monthly Yearly Custom
  High: Low: Average:
Temperature: 35.2 °F /  1.8 °C 18.3 °F /  -7.6 °C 27.7 °F /  -2.4 °C
Dew Point: 26.7 °F /  -2.9 °C 13.8 °F /  -10.1 °C 18.1 °F /  -7.7 °C
Humidity: 89% 43% 68%
Wind Speed: 8.0mph /  12.9km/h - 1.8mph /  2.9km/h
Wind Gust: 12.0mph /  19.3km/h - -
Wind- - SSE
Pressure: 30.34 in /  1027.3 hPa 29.94 in /  1013.8 hPa -
Precipitation: 0.00 in /  0 mm    
Historical Graphs
 
 
Tabular Data for February 17, 2018
Time Temperature Dew Point Pressure Wind Wind Speed Wind Gust Humidity Rainfall Rate (Hourly) solar
00:02 23.6 °F /  -4.7 °C 14.9 °F /  -9.5 °C 30.24in /  1023.9hPa WNW 1.0mph /  1.6km/h 2.0mph /  3.2km/h 69% 0.00in /  0mm 0 W/m2
00:08 23.7 °F /  -4.6 °C 15.0 °F /  -9.4 °C 30.24in /  1023.9hPa WNW 2.0mph /  3.2km/h 5.0mph /  8km/h 69% 0.00in /  0mm 0 W/m2
00:14 23.6 °F /  -4.7 °C 15.2 °F /  -9.3 °C 30.24in /  1023.9hPa WNW 2.0mph /  3.2km/h 2.0mph /  3.2km/h 70% 0.00in /  0mm 0 W/m2
00:20 23.5 °F /  -4.7 °C 15.1 °F /  -9.4 °C 30.24in /  1023.9hPa WNW 1.0mph /  1.6km/h 1.0mph /  1.6km/h 70% 0.00in /  0mm 0 W/m2
00:26 23.3 °F /  -4.8 °C 15.0 °F /  -9.4 °C 30.24in /  1023.9hPa WNW 1.0mph /  1.6km/h 1.0mph /  1.6km/h 70% 0.00in /  0mm 0 W/m2
00:32 23.2 °F /  -4.9 °C 15.2 °F /  -9.3 °C 30.25in /  1024.3hPa Calm   2.0mph /  3.2km/h 71% 0.00in /  0mm 0 W/m2
00:38 23.2 °F /  -4.9 °C 15.2 °F /  -9.3 °C 30.25in /  1024.3hPa Calm   2.0mph /  3.2km/h 71% 0.00in /  0mm 0 W/m2
00:44 23.2 °F /  -4.9 °C 15.2 °F /  -9.3 °C 30.25in /  1024.3hPa Calm     71% 0.00in /  0mm 0 W/m2
00:50 23.2 °F /  -4.9 °C 15.2 °F /  -9.3 °C 30.26in /  1024.6hPa Calm     71% 0.00in /  0mm 0 W/m2
00:56 23.0 °F /  -5 °C 15.3 °F /  -9.3 °C 30.26in /  1024.6hPa Calm     72% 0.00in /  0mm 0 W/m2
01:02 22.9 °F /  -5.1 °C 15.2 °F /  -9.3 °C 30.26in /  1024.6hPa Calm     72% 0.00in /  0mm 0 W/m2
01:08 23.0 °F /  -5 °C 15.3 °F /  -9.3 °C 30.26in /  1024.6hPa Calm     72% 0.00in /  0mm 0 W/m2
01:14 23.2 °F /  -4.9 °C 15.8 °F /  -9 °C 30.26in /  1024.6hPa Calm     73% 0.00in /  0mm 0 W/m2
01:20 23.3 °F /  -4.8 °C 15.9 °F /  -8.9 °C 30.27in /  1024.9hPa Calm     73% 0.00in /  0mm 0 W/m2
01:26 23.5 °F /  -4.7 °C 15.8 °F /  -9 °C 30.27in /  1024.9hPa Calm     72% 0.00in /  0mm 0 W/m2
01:32 23.4 °F /  -4.8 °C 15.7 °F /  -9.1 °C 30.27in /  1024.9hPa Calm     72% 0.00in /  0mm 0 W/m2
01:38 23.3 °F /  -4.8 °C 15.9 °F /  -8.9 °C 30.26in /  1024.6hPa Calm     73% 0.00in /  0mm 0 W/m2
01:44 23.2 °F /  -4.9 °C 15.8 °F /  -9 °C 30.26in /  1024.6hPa Calm     73% 0.00in /  0mm 0 W/m2
01:50 23.2 °F /  -4.9 °C 15.8 °F /  -9 °C 30.27in /  1024.9hPa Calm     73% 0.00in /  0mm 0 W/m2
01:56 23.1 °F /  -4.9 °C 16.0 °F /  -8.9 °C 30.27in /  1024.9hPa Calm     74% 0.00in /  0mm 0 W/m2
02:02 23.1 °F /  -4.9 °C 16.0 °F /  -8.9 °C 30.27in /  1024.9hPa Calm     74% 0.00in /  0mm 0 W/m2
02:08 23.0 °F /  -5 °C 15.9 °F /  -8.9 °C 30.27in /  1024.9hPa Calm     74% 0.00in /  0mm 0 W/m2
02:14 23.0 °F /  -5 °C 15.9 °F /  -8.9 °C 30.27in /  1024.9hPa Calm     74% 0.00in /  0mm 0 W/m2
02:20 23.0 °F /  -5 °C 15.9 °F /  -8.9 °C 30.27in /  1024.9hPa Calm     74% 0.00in /  0mm 0 W/m2
02:26 23.0 °F /  -5 °C 15.9 °F /  -8.9 °C 30.27in /  1024.9hPa Calm     74% 0.00in /  0mm 0 W/m2
02:32 22.8 °F /  -5.1 °C 16.1 °F /  -8.8 °C 30.27in /  1024.9hPa Calm     75% 0.00in /  0mm 0 W/m2
02:38 22.4 °F /  -5.3 °C 15.7 °F /  -9.1 °C 30.27in /  1024.9hPa Calm     75% 0.00in /  0mm 0 W/m2
02:44 22.2 °F /  -5.4 °C 15.5 °F /  -9.2 °C 30.27in /  1024.9hPa Calm     75% 0.00in /  0mm 0 W/m2
02:50 21.9 °F /  -5.6 °C 15.5 °F /  -9.2 °C 30.27in /  1024.9hPa Calm     76% 0.00in /  0mm 0 W/m2
02:56 21.6 °F /  -5.8 °C 15.2 °F /  -9.3 °C 30.27in /  1024.9hPa Calm     76% 0.00in /  0mm 0 W/m2
03:02 21.3 °F /  -5.9 °C 14.9 °F /  -9.5 °C 30.28in /  1025.3hPa Calm     76% 0.00in /  0mm 0 W/m2
03:08 21.0 °F /  -6.1 °C 14.9 °F /  -9.5 °C 30.28in /  1025.3hPa Calm     77% 0.00in /  0mm 0 W/m2
03:14 20.8 °F /  -6.2 °C 15.0 °F /  -9.4 °C 30.28in /  1025.3hPa Calm     78% 0.00in /  0mm 0 W/m2
03:20 20.5 °F /  -6.4 °C 15.0 °F /  -9.4 °C 30.28in /  1025.3hPa Calm     79% 0.00in /  0mm 0 W/m2
03:26 20.2 °F /  -6.6 °C 14.7 °F /  -9.6 °C 30.28in /  1025.3hPa Calm     79% 0.00in /  0mm 0 W/m2
03:32 20.0 °F /  -6.7 °C 14.8 °F /  -9.6 °C 30.29in /  1025.6hPa Calm     80% 0.00in /  0mm 0 W/m2
03:38 19.6 °F /  -6.9 °C 14.4 °F /  -9.8 °C 30.29in /  1025.6hPa Calm     80% 0.00in /  0mm 0 W/m2
03:44 19.4 °F /  -7 °C 14.5 °F /  -9.7 °C 30.29in /  1025.6hPa Calm     81% 0.00in /  0mm 0 W/m2
03:50 19.2 °F /  -7.1 °C 14.6 °F /  -9.7 °C 30.30in /  1026hPa Calm     82% 0.00in /  0mm 0 W/m2
03:56 19.0 °F /  -7.2 °C 14.4 °F /  -9.8 °C 30.30in /  1026hPa Calm     82% 0.00in /  0mm 0 W/m2
04:02 18.8 °F /  -7.3 °C 14.5 °F /  -9.7 °C 30.31in /  1026.3hPa Calm     83% 0.00in /  0mm 0 W/m2
04:08 18.7 °F /  -7.4 °C 14.4 °F /  -9.8 °C 30.31in /  1026.3hPa Calm     83% 0.00in /  0mm 0 W/m2
04:14 18.6 °F /  -7.4 °C 14.3 °F /  -9.8 °C 30.31in /  1026.3hPa Calm     83% 0.00in /  0mm 0 W/m2
04:20 18.4 °F /  -7.6 °C 14.4 °F /  -9.8 °C 30.31in /  1026.3hPa Calm     84% 0.00in /  0mm 0 W/m2
04:26 18.5 °F /  -7.5 °C 14.5 °F /  -9.7 °C 30.31in /  1026.3hPa Calm     84% 0.00in /  0mm 0 W/m2
04:32 18.4 °F /  -7.6 °C 14.4 °F /  -9.8 °C 30.31in /  1026.3hPa Calm     84% 0.00in /  0mm 0 W/m2
04:38 18.3 °F /  -7.6 °C 14.5 °F /  -9.7 °C 30.31in /  1026.3hPa Calm     85% 0.00in /  0mm 0 W/m2
04:44 18.3 °F /  -7.6 °C 14.5 °F /  -9.7 °C 30.31in /  1026.3hPa Calm     85% 0.00in /  0mm 0 W/m2
04:50 18.5 °F /  -7.5 °C 14.7 °F /  -9.6 °C 30.32in /  1026.6hPa Calm     85% 0.00in /  0mm 0 W/m2
04:56 18.8 °F /  -7.3 °C 15.3 °F /  -9.3 °C 30.32in /  1026.6hPa Calm     86% 0.00in /  0mm 0 W/m2
05:02 19.5 °F /  -6.9 °C 16.0 °F /  -8.9 °C 30.32in /  1026.6hPa Calm   2.0mph /  3.2km/h 86% 0.00in /  0mm 0 W/m2
05:08 20.4 °F /  -6.4 °C 16.9 °F /  -8.4 °C 30.32in /  1026.6hPa Calm   2.0mph /  3.2km/h 86% 0.00in /  0mm 0 W/m2
05:14 20.9 °F /  -6.2 °C 17.4 °F /  -8.1 °C 30.32in /  1026.6hPa Calm     86% 0.00in /  0mm 0 W/m2
05:20 21.2 °F /  -6 °C 17.7 °F /  -7.9 °C 30.32in /  1026.6hPa Calm     86% 0.00in /  0mm 0 W/m2
05:26 21.5 °F /  -5.8 °C 17.7 °F /  -7.9 °C 30.32in /  1026.6hPa Calm     85% 0.00in /  0mm 0 W/m2
05:32 21.8 °F /  -5.7 °C 18.0 °F /  -7.8 °C 30.32in /  1026.6hPa Calm   1.0mph /  1.6km/h 85% 0.00in /  0mm 0 W/m2
05:38 22.2 °F /  -5.4 °C 18.1 °F /  -7.7 °C 30.32in /  1026.6hPa SSW 1.0mph /  1.6km/h 1.0mph /  1.6km/h 84% 0.00in /  0mm 0 W/m2
05:44 22.4 °F /  -5.3 °C 18.0 °F /  -7.8 °C 30.33in /  1027hPa SSW 1.0mph /  1.6km/h 3.0mph /  4.8km/h 83% 0.00in /  0mm 0 W/m2
05:50 22.6 °F /  -5.2 °C 17.6 °F /  -8 °C 30.33in /  1027hPa SSW 1.0mph /  1.6km/h 1.0mph /  1.6km/h 81% 0.00in /  0mm 0 W/m2
05:56 22.7 °F /  -5.2 °C 17.7 °F /  -7.9 °C 30.32in /  1026.6hPa Calm   1.0mph /  1.6km/h 81% 0.00in /  0mm 0 W/m2
06:02 22.8 °F /  -5.1 °C 17.6 °F /  -8 °C 30.33in /  1027hPa Calm   1.0mph /  1.6km/h 80% 0.00in /  0mm 0 W/m2
06:08 22.9 °F /  -5.1 °C 17.4 °F /  -8.1 °C 30.33in /  1027hPa SSW 1.0mph /  1.6km/h 3.0mph /  4.8km/h 79% 0.00in /  0mm 0 W/m2
06:14 22.9 °F /  -5.1 °C 17.4 °F /  -8.1 °C 30.33in /  1027hPa SSW 1.0mph /  1.6km/h 3.0mph /  4.8km/h 79% 0.00in /  0mm 0 W/m2
06:20 22.9 °F /  -5.1 °C 17.4 °F /  -8.1 °C 30.32in /  1026.6hPa SSW 1.0mph /  1.6km/h 1.0mph /  1.6km/h 79% 0.00in /  0mm 0 W/m2
06:26 22.8 °F /  -5.1 °C 17.3 °F /  -8.2 °C 30.33in /  1027hPa Calm   1.0mph /  1.6km/h 79% 0.00in /  0mm 0 W/m2
06:32 22.7 °F /  -5.2 °C 17.2 °F /  -8.2 °C 30.33in /  1027hPa Calm     79% 0.00in /  0mm 0 W/m2
06:38 22.6 °F /  -5.2 °C 17.1 °F /  -8.3 °C 30.33in /  1027hPa Calm     79% 0.00in /  0mm 0 W/m2
06:44 22.5 °F /  -5.3 °C 17.0 °F /  -8.3 °C 30.33in /  1027hPa Calm     79% 0.00in /  0mm 0 W/m2
06:50 22.3 °F /  -5.4 °C 16.8 °F /  -8.4 °C 30.34in /  1027.3hPa Calm     79% 0.00in /  0mm 0 W/m2
06:56 22.2 °F /  -5.4 °C 17.0 °F /  -8.3 °C 30.33in /  1027hPa Calm     80% 0.00in /  0mm 0 W/m2
07:02 21.8 °F /  -5.7 °C 16.6 °F /  -8.6 °C 30.33in /  1027hPa Calm     80% 0.00in /  0mm 5 W/m2
07:08 21.4 °F /  -5.9 °C 16.2 °F /  -8.8 °C 30.34in /  1027.3hPa Calm     80% 0.00in /  0mm 7 W/m2
07:14 21.2 °F /  -6 °C 16.3 °F /  -8.7 °C 30.34in /  1027.3hPa Calm     81% 0.00in /  0mm 11 W/m2
07:20 20.8 °F /  -6.2 °C 15.9 °F /  -8.9 °C 30.34in /  1027.3hPa Calm     81% 0.00in /  0mm 14 W/m2
07:26 20.5 °F /  -6.4 °C 15.9 °F /  -8.9 °C 30.34in /  1027.3hPa Calm     82% 0.00in /  0mm 18 W/m2
07:32 20.3 °F /  -6.5 °C 15.7 °F /  -9.1 °C 30.34in /  1027.3hPa Calm     82% 0.00in /  0mm 21 W/m2
07:38 20.2 °F /  -6.6 °C 15.9 °F /  -8.9 °C 30.34in /  1027.3hPa Calm     83% 0.00in /  0mm 26 W/m2
07:44 20.2 °F /  -6.6 °C 15.9 °F /  -8.9 °C 30.34in /  1027.3hPa Calm     83% 0.00in /  0mm 42 W/m2
07:50 20.3 °F /  -6.5 °C 16.0 °F /  -8.9 °C 30.34in /  1027.3hPa Calm     83% 0.00in /  0mm 44 W/m2
07:56 20.8 °F /  -6.2 °C 16.7 °F /  -8.5 °C 30.34in /  1027.3hPa Calm   2.0mph /  3.2km/h 84% 0.00in /  0mm 42 W/m2
08:02 21.8 °F /  -5.7 °C 17.7 °F /  -7.9 °C 30.34in /  1027.3hPa SSW 1.0mph /  1.6km/h 1.0mph /  1.6km/h 84% 0.00in /  0mm 102 W/m2
08:08 22.6 °F /  -5.2 °C 18.2 °F /  -7.7 °C 30.34in /  1027.3hPa SSW 1.0mph /  1.6km/h 1.0mph /  1.6km/h 83% 0.00in /  0mm 202 W/m2
08:14 23.4 °F /  -4.8 °C 18.7 °F /  -7.4 °C 30.34in /  1027.3hPa SE 1.0mph /  1.6km/h 3.0mph /  4.8km/h 82% 0.00in /  0mm 192 W/m2
08:20 24.2 °F /  -4.3 °C 18.9 °F /  -7.3 °C 30.33in /  1027hPa SE 2.0mph /  3.2km/h 2.0mph /  3.2km/h 80% 0.00in /  0mm 151 W/m2
08:26 24.7 °F /  -4.1 °C 18.8 °F /  -7.3 °C 30.33in /  1027hPa SSE 2.0mph /  3.2km/h 3.0mph /  4.8km/h 78% 0.00in /  0mm 190 W/m2
08:32 25.1 °F /  -3.8 °C 18.6 °F /  -7.4 °C 30.32in /  1026.6hPa SSE 3.0mph /  4.8km/h 3.0mph /  4.8km/h 76% 0.00in /  0mm 214 W/m2
08:38 25.4 °F /  -3.7 °C 18.6 °F /  -7.4 °C 30.32in /  1026.6hPa South 2.0mph /  3.2km/h 4.0mph /  6.4km/h 75% 0.00in /  0mm 167 W/m2
08:50 25.7 °F /  -3.5 °C 17.9 °F /  -7.8 °C 30.32in /  1026.6hPa SW 3.0mph /  4.8km/h 4.0mph /  6.4km/h 72% 0.00in /  0mm 225 W/m2
08:56 25.6 °F /  -3.6 °C 17.5 °F /  -8.1 °C 30.31in /  1026.3hPa SSE 3.0mph /  4.8km/h 4.0mph /  6.4km/h 71% 0.00in /  0mm 260 W/m2
09:02 25.8 °F /  -3.4 °C 17.7 °F /  -7.9 °C 30.31in /  1026.3hPa South 3.0mph /  4.8km/h 6.0mph /  9.7km/h 71% 0.00in /  0mm 236 W/m2
09:08 26.0 °F /  -3.3 °C 17.9 °F /  -7.8 °C 30.31in /  1026.3hPa South 3.0mph /  4.8km/h 6.0mph /  9.7km/h 71% 0.00in /  0mm 241 W/m2
09:14 26.2 °F /  -3.2 °C 17.7 °F /  -7.9 °C 30.31in /  1026.3hPa SSE 3.0mph /  4.8km/h 4.0mph /  6.4km/h 70% 0.00in /  0mm 288 W/m2
09:20 26.6 °F /  -3 °C 17.8 °F /  -7.9 °C 30.31in /  1026.3hPa SW 3.0mph /  4.8km/h 3.0mph /  4.8km/h 69% 0.00in /  0mm 264 W/m2
09:26 26.7 °F /  -2.9 °C 17.6 °F /  -8 °C 30.31in /  1026.3hPa South 3.0mph /  4.8km/h 4.0mph /  6.4km/h 68% 0.00in /  0mm 279 W/m2
09:32 26.8 °F /  -2.9 °C 17.6 °F /  -8 °C 30.31in /  1026.3hPa SSW 3.0mph /  4.8km/h 5.0mph /  8km/h 68% 0.00in /  0mm 295 W/m2
09:38 26.9 °F /  -2.8 °C 17.0 °F /  -8.3 °C 30.31in /  1026.3hPa SE 2.0mph /  3.2km/h 5.0mph /  8km/h 66% 0.00in /  0mm 265 W/m2
09:44 26.8 °F /  -2.9 °C 17.3 °F /  -8.2 °C 30.31in /  1026.3hPa South 3.0mph /  4.8km/h 7.0mph /  11.3km/h 67% 0.00in /  0mm 329 W/m2
09:50 27.3 °F /  -2.6 °C 17.1 °F /  -8.3 °C 30.31in /  1026.3hPa SW 3.0mph /  4.8km/h 3.0mph /  4.8km/h 65% 0.00in /  0mm 385 W/m2
09:56 27.3 °F /  -2.6 °C 16.4 °F /  -8.7 °C 30.30in /  1026hPa South 3.0mph /  4.8km/h 4.0mph /  6.4km/h 63% 0.00in /  0mm 424 W/m2
10:02 27.7 °F /  -2.4 °C 16.7 °F /  -8.5 °C 30.29in /  1025.6hPa SSE 4.0mph /  6.4km/h 5.0mph /  8km/h 63% 0.00in /  0mm 475 W/m2
10:08 28.1 °F /  -2.2 °C 17.5 °F /  -8.1 °C 30.29in /  1025.6hPa SSE 3.0mph /  4.8km/h 5.0mph /  8km/h 64% 0.00in /  0mm 431 W/m2
10:14 27.8 °F /  -2.3 °C 16.1 °F /  -8.8 °C 30.29in /  1025.6hPa South 4.0mph /  6.4km/h 5.0mph /  8km/h 61% 0.00in /  0mm 362 W/m2
10:20 27.9 °F /  -2.3 °C 16.9 °F /  -8.4 °C 30.29in /  1025.6hPa SE 4.0mph /  6.4km/h 4.0mph /  6.4km/h 63% 0.00in /  0mm 355 W/m2
10:26 28.1 °F /  -2.2 °C 16.4 °F /  -8.7 °C 30.29in /  1025.6hPa South 3.0mph /  4.8km/h 4.0mph /  6.4km/h 61% 0.00in /  0mm 438 W/m2
10:32 28.1 °F /  -2.2 °C 16.7 °F /  -8.5 °C 30.29in /  1025.6hPa SSE 4.0mph /  6.4km/h 6.0mph /  9.7km/h 62% 0.00in /  0mm 434 W/m2
10:38 28.2 °F /  -2.1 °C 16.8 °F /  -8.4 °C 30.29in /  1025.6hPa ESE 5.0mph /  8km/h 6.0mph /  9.7km/h 62% 0.00in /  0mm 422 W/m2
10:44 28.3 °F /  -2.1 °C 16.6 °F /  -8.6 °C 30.28in /  1025.3hPa SSE 5.0mph /  8km/h 5.0mph /  8km/h 61% 0.00in /  0mm 406 W/m2
10:50 28.8 °F /  -1.8 °C 16.6 °F /  -8.6 °C 30.28in /  1025.3hPa ENE 4.0mph /  6.4km/h 8.0mph /  12.9km/h 60% 0.00in /  0mm 425 W/m2
10:56 29.3 °F /  -1.5 °C 17.5 °F /  -8.1 °C 30.28in /  1025.3hPa SSE 4.0mph /  6.4km/h 8.0mph /  12.9km/h 61% 0.00in /  0mm 468 W/m2
11:02 29.4 °F /  -1.4 °C 17.2 °F /  -8.2 °C 30.27in /  1024.9hPa SSE 3.0mph /  4.8km/h 4.0mph /  6.4km/h 60% 0.00in /  0mm 422 W/m2
11:08 29.4 °F /  -1.4 °C 16.8 °F /  -8.4 °C 30.27in /  1024.9hPa ESE 3.0mph /  4.8km/h 5.0mph /  8km/h 59% 0.00in /  0mm 380 W/m2
11:14 29.2 °F /  -1.6 °C 17.8 °F /  -7.9 °C 30.27in /  1024.9hPa SSE 3.0mph /  4.8km/h 5.0mph /  8km/h 62% 0.00in /  0mm 323 W/m2
11:20 29.3 °F /  -1.5 °C 17.1 °F /  -8.3 °C 30.27in /  1024.9hPa South 4.0mph /  6.4km/h 4.0mph /  6.4km/h 60% 0.00in /  0mm 346 W/m2
11:26 29.5 °F /  -1.4 °C 17.7 °F /  -7.9 °C 30.26in /  1024.6hPa SSE 4.0mph /  6.4km/h 5.0mph /  8km/h 61% 0.00in /  0mm 443 W/m2
11:32 29.8 °F /  -1.2 °C 17.2 °F /  -8.2 °C 30.25in /  1024.3hPa SSE 4.0mph /  6.4km/h 4.0mph /  6.4km/h 59% 0.00in /  0mm 411 W/m2
11:38 30.4 °F /  -0.9 °C 18.5 °F /  -7.5 °C 30.25in /  1024.3hPa ESE 4.0mph /  6.4km/h 5.0mph /  8km/h 61% 0.00in /  0mm 411 W/m2
11:44 30.0 °F /  -1.1 °C 17.0 °F /  -8.3 °C 30.25in /  1024.3hPa SE 4.0mph /  6.4km/h 4.0mph /  6.4km/h 58% 0.00in /  0mm 350 W/m2
11:50 30.5 °F /  -0.8 °C 18.3 °F /  -7.6 °C 30.24in /  1023.9hPa SW 3.0mph /  4.8km/h 3.0mph /  4.8km/h 60% 0.00in /  0mm 338 W/m2
11:56 30.2 °F /  -1 °C 17.6 °F /  -8 °C 30.24in /  1023.9hPa South 3.0mph /  4.8km/h 5.0mph /  8km/h 59% 0.00in /  0mm 315 W/m2
12:02 30.4 °F /  -0.9 °C 17.8 °F /  -7.9 °C 30.23in /  1023.6hPa SSE 2.0mph /  3.2km/h 2.0mph /  3.2km/h 59% 0.00in /  0mm 320 W/m2
12:08 30.9 °F /  -0.6 °C 18.6 °F /  -7.4 °C 30.22in /  1023.2hPa SE 1.0mph /  1.6km/h 3.0mph /  4.8km/h 60% 0.00in /  0mm 330 W/m2
12:14 30.7 °F /  -0.7 °C 17.7 °F /  -7.9 °C 30.21in /  1022.9hPa SE 2.0mph /  3.2km/h 3.0mph /  4.8km/h 58% 0.00in /  0mm 311 W/m2
12:20 31.0 °F /  -0.6 °C 17.5 °F /  -8.1 °C 30.21in /  1022.9hPa ENE 2.0mph /  3.2km/h 2.0mph /  3.2km/h 57% 0.00in /  0mm 327 W/m2
12:26 31.4 °F /  -0.3 °C 17.5 °F /  -8.1 °C 30.20in /  1022.6hPa SE 2.0mph /  3.2km/h 3.0mph /  4.8km/h 56% 0.00in /  0mm 283 W/m2
12:32 31.2 °F /  -0.4 °C 17.3 °F /  -8.2 °C 30.20in /  1022.6hPa East 2.0mph /  3.2km/h 2.0mph /  3.2km/h 56% 0.00in /  0mm 281 W/m2
12:38 31.5 °F /  -0.3 °C 18.4 °F /  -7.6 °C 30.19in /  1022.2hPa ESE 2.0mph /  3.2km/h 2.0mph /  3.2km/h 58% 0.00in /  0mm 265 W/m2
12:44 31.7 °F /  -0.2 °C 17.8 °F /  -7.9 °C 30.18in /  1021.9hPa East 3.0mph /  4.8km/h 3.0mph /  4.8km/h 56% 0.00in /  0mm 243 W/m2
12:50 31.6 °F /  -0.2 °C 17.3 °F /  -8.2 °C 30.19in /  1022.2hPa SE 3.0mph /  4.8km/h 3.0mph /  4.8km/h 55% 0.00in /  0mm 232 W/m2
12:56 31.8 °F /  -0.1 °C 17.9 °F /  -7.8 °C 30.19in /  1022.2hPa South 2.0mph /  3.2km/h 6.0mph /  9.7km/h 56% 0.00in /  0mm 221 W/m2
13:02 32.2 °F /  0.1 °C 17.4 °F /  -8.1 °C 30.18in /  1021.9hPa SSE 2.0mph /  3.2km/h 4.0mph /  6.4km/h 54% 0.00in /  0mm 216 W/m2
13:08 32.2 °F /  0.1 °C 16.5 °F /  -8.6 °C 30.19in /  1022.2hPa SE 2.0mph /  3.2km/h 4.0mph /  6.4km/h 52% 0.00in /  0mm 197 W/m2
13:14 32.2 °F /  0.1 °C 17.0 °F /  -8.3 °C 30.18in /  1021.9hPa SE 2.0mph /  3.2km/h 3.0mph /  4.8km/h 53% 0.00in /  0mm 192 W/m2
13:20 31.4 °F /  -0.3 °C 18.3 °F /  -7.6 °C 30.17in /  1021.6hPa ENE 3.0mph /  4.8km/h 3.0mph /  4.8km/h 58% 0.00in /  0mm 213 W/m2
13:26 30.8 °F /  -0.7 °C 18.9 °F /  -7.3 °C 30.17in /  1021.6hPa North 3.0mph /  4.8km/h 4.0mph /  6.4km/h 61% 0.00in /  0mm 220 W/m2
13:32 31.0 °F /  -0.6 °C 19.1 °F /  -7.2 °C 30.15in /  1020.9hPa NNE 3.0mph /  4.8km/h 3.0mph /  4.8km/h 61% 0.00in /  0mm 213 W/m2
13:38 31.2 °F /  -0.4 °C 20.1 °F /  -6.6 °C 30.14in /  1020.5hPa ENE 2.0mph /  3.2km/h 3.0mph /  4.8km/h 63% 0.00in /  0mm 237 W/m2
13:44 31.2 °F /  -0.4 °C 19.3 °F /  -7.1 °C 30.14in /  1020.5hPa ENE 2.0mph /  3.2km/h 5.0mph /  8km/h 61% 0.00in /  0mm 230 W/m2
13:50 31.6 °F /  -0.2 °C 18.9 °F /  -7.3 °C 30.13in /  1020.2hPa ENE 2.0mph /  3.2km/h 3.0mph /  4.8km/h 59% 0.00in /  0mm 214 W/m2
13:56 31.7 °F /  -0.2 °C 19.4 °F /  -7 °C 30.13in /  1020.2hPa NE 2.0mph /  3.2km/h 3.0mph /  4.8km/h 60% 0.00in /  0mm 209 W/m2
14:02 31.8 °F /  -0.1 °C 18.7 °F /  -7.4 °C 30.12in /  1019.9hPa ENE 3.0mph /  4.8km/h 3.0mph /  4.8km/h 58% 0.00in /  0mm 216 W/m2
14:08 32.1 °F /  0.1 °C 19.4 °F /  -7 °C 30.11in /  1019.5hPa ENE 2.0mph /  3.2km/h 3.0mph /  4.8km/h 59% 0.00in /  0mm 218 W/m2
14:14 32.4 °F /  0.2 °C 18.4 °F /  -7.6 °C 30.11in /  1019.5hPa East 2.0mph /  3.2km/h 3.0mph /  4.8km/h 56% 0.00in /  0mm 202 W/m2
14:20 33.0 °F /  0.6 °C 16.8 °F /  -8.4 °C 30.11in /  1019.5hPa ESE 2.0mph /  3.2km/h 2.0mph /  3.2km/h 51% 0.00in /  0mm 197 W/m2
14:26 33.7 °F /  0.9 °C 15.6 °F /  -9.1 °C 30.11in /  1019.5hPa SSE 3.0mph /  4.8km/h 4.0mph /  6.4km/h 47% 0.00in /  0mm 176 W/m2
14:32 33.9 °F /  1.1 °C 14.8 °F /  -9.6 °C 30.10in /  1019.2hPa South 3.0mph /  4.8km/h 4.0mph /  6.4km/h 45% 0.00in /  0mm 156 W/m2
14:38 34.0 °F /  1.1 °C 13.8 °F /  -10.1 °C 30.10in /  1019.2hPa South 4.0mph /  6.4km/h 4.0mph /  6.4km/h 43% 0.00in /  0mm 141 W/m2
14:44 34.0 °F /  1.1 °C 14.3 °F /  -9.8 °C 30.09in /  1018.8hPa SSE 5.0mph /  8km/h 7.0mph /  11.3km/h 44% 0.00in /  0mm 137 W/m2
16:09 34.3 °F /  1.3 °C 15.1 °F /  -9.4 °C 30.06in /  1017.8hPa SSE 1.0mph /  1.6km/h 1.0mph /  1.6km/h 45% 0.00in /  0mm 42 W/m2
16:15 34.4 °F /  1.3 °C 14.7 °F /  -9.6 °C 30.06in /  1017.8hPa SSE 1.0mph /  1.6km/h 3.0mph /  4.8km/h 44% 0.00in /  0mm 39 W/m2
16:22 34.5 °F /  1.4 °C 15.3 °F /  -9.3 °C 30.06in /  1017.8hPa ESE 2.0mph /  3.2km/h 3.0mph /  4.8km/h 45% 0.00in /  0mm 35 W/m2
16:28 34.8 °F /  1.6 °C 15.6 °F /  -9.1 °C 30.06in /  1017.8hPa SSE 3.0mph /  4.8km/h 4.0mph /  6.4km/h 45% 0.00in /  0mm 30 W/m2
16:33 34.9 °F /  1.6 °C 15.2 °F /  -9.3 °C 30.06in /  1017.8hPa SSE 4.0mph /  6.4km/h 6.0mph /  9.7km/h 44% 0.00in /  0mm 28 W/m2
16:39 35.0 °F /  1.7 °C 15.3 °F /  -9.3 °C 30.06in /  1017.8hPa South 5.0mph /  8km/h 5.0mph /  8km/h 44% 0.00in /  0mm 25 W/m2
16:45 35.1 °F /  1.7 °C 15.3 °F /  -9.3 °C 30.06in /  1017.8hPa SSW 5.0mph /  8km/h 5.0mph /  8km/h 44% 0.00in /  0mm 21 W/m2
16:52 35.2 °F /  1.8 °C 15.4 °F /  -9.2 °C 30.05in /  1017.5hPa South 6.0mph /  9.7km/h 8.0mph /  12.9km/h 44% 0.00in /  0mm 18 W/m2
16:58 35.2 °F /  1.8 °C 15.4 °F /  -9.2 °C 30.06in /  1017.8hPa South 6.0mph /  9.7km/h 8.0mph /  12.9km/h 44% 0.00in /  0mm 14 W/m2
17:03 35.0 °F /  1.7 °C 16.3 °F /  -8.7 °C 30.06in /  1017.8hPa South 4.0mph /  6.4km/h 5.0mph /  8km/h 46% 0.00in /  0mm 11 W/m2
17:09 35.0 °F /  1.7 °C 16.3 °F /  -8.7 °C 30.05in /  1017.5hPa South 4.0mph /  6.4km/h 4.0mph /  6.4km/h 46% 0.00in /  0mm 9 W/m2
17:15 34.9 °F /  1.6 °C 16.2 °F /  -8.8 °C 30.05in /  1017.5hPa South 4.0mph /  6.4km/h 5.0mph /  8km/h 46% 0.00in /  0mm 5 W/m2
17:22 34.8 °F /  1.6 °C 16.6 °F /  -8.6 °C 30.06in /  1017.8hPa South 3.0mph /  4.8km/h 3.0mph /  4.8km/h 47% 0.00in /  0mm 0 W/m2
17:28 34.9 °F /  1.6 °C 16.2 °F /  -8.8 °C 30.06in /  1017.8hPa SW 4.0mph /  6.4km/h 6.0mph /  9.7km/h 46% 0.00in /  0mm 0 W/m2
17:33 34.9 °F /  1.6 °C 16.7 °F /  -8.5 °C 30.05in /  1017.5hPa SSW 4.0mph /  6.4km/h 4.0mph /  6.4km/h 47% 0.00in /  0mm 0 W/m2
17:39 34.8 °F /  1.6 °C 16.6 °F /  -8.6 °C 30.05in /  1017.5hPa SSW 3.0mph /  4.8km/h 3.0mph /  4.8km/h 47% 0.00in /  0mm 0 W/m2
17:45 34.9 °F /  1.6 °C 16.7 °F /  -8.5 °C 30.05in /  1017.5hPa South 3.0mph /  4.8km/h 5.0mph /  8km/h 47% 0.00in /  0mm 0 W/m2
17:51 34.8 °F /  1.6 °C 17.1 °F /  -8.3 °C 30.05in /  1017.5hPa SSW 3.0mph /  4.8km/h 4.0mph /  6.4km/h 48% 0.00in /  0mm 0 W/m2
17:58 34.8 °F /  1.6 °C 16.6 °F /  -8.6 °C 30.05in /  1017.5hPa South 4.0mph /  6.4km/h 10.0mph /  16.1km/h 47% 0.00in /  0mm 0 W/m2
18:03 34.8 °F /  1.6 °C 17.6 °F /  -8 °C 30.04in /  1017.2hPa South 4.0mph /  6.4km/h 6.0mph /  9.7km/h 49% 0.00in /  0mm 0 W/m2
18:09 34.8 °F /  1.6 °C 17.1 °F /  -8.3 °C 30.04in /  1017.2hPa South 4.0mph /  6.4km/h 4.0mph /  6.4km/h 48% 0.00in /  0mm 0 W/m2
18:15 34.7 °F /  1.5 °C 17.5 °F /  -8.1 °C 30.03in /  1016.8hPa South 4.0mph /  6.4km/h 5.0mph /  8km/h 49% 0.00in /  0mm 0 W/m2
18:22 34.6 °F /  1.4 °C 17.4 °F /  -8.1 °C 30.03in /  1016.8hPa South 4.0mph /  6.4km/h 6.0mph /  9.7km/h 49% 0.00in /  0mm 0 W/m2
18:28 34.6 °F /  1.4 °C 17.4 °F /  -8.1 °C 30.03in /  1016.8hPa SSW 4.0mph /  6.4km/h 6.0mph /  9.7km/h 49% 0.00in /  0mm 0 W/m2
18:33 34.6 °F /  1.4 °C 17.8 °F /  -7.9 °C 30.03in /  1016.8hPa SSW 3.0mph /  4.8km/h 4.0mph /  6.4km/h 50% 0.00in /  0mm 0 W/m2
18:39 34.5 °F /  1.4 °C 17.3 °F /  -8.2 °C 30.02in /  1016.5hPa South 3.0mph /  4.8km/h 3.0mph /  4.8km/h 49% 0.00in /  0mm 0 W/m2
18:45 34.4 °F /  1.3 °C 17.2 °F /  -8.2 °C 30.01in /  1016.1hPa SSW 3.0mph /  4.8km/h 4.0mph /  6.4km/h 49% 0.00in /  0mm 0 W/m2
18:52 34.3 °F /  1.3 °C 17.6 °F /  -8 °C 30.01in /  1016.1hPa South 2.0mph /  3.2km/h 2.0mph /  3.2km/h 50% 0.00in /  0mm 0 W/m2
18:58 34.2 °F /  1.2 °C 17.9 °F /  -7.8 °C 30.01in /  1016.1hPa South 2.0mph /  3.2km/h 2.0mph /  3.2km/h 51% 0.00in /  0mm 0 W/m2
19:03 34.1 °F /  1.2 °C 18.3 °F /  -7.6 °C 30.00in /  1015.8hPa South 2.0mph /  3.2km/h 2.0mph /  3.2km/h 52% 0.00in /  0mm 0 W/m2
19:09 34.0 °F /  1.1 °C 18.2 °F /  -7.7 °C 30.00in /  1015.8hPa South 1.0mph /  1.6km/h 1.0mph /  1.6km/h 52% 0.00in /  0mm 0 W/m2
19:15 34.0 °F /  1.1 °C 17.7 °F /  -7.9 °C 30.01in /  1016.1hPa South 1.0mph /  1.6km/h 3.0mph /  4.8km/h 51% 0.00in /  0mm 0 W/m2
19:22 34.0 °F /  1.1 °C 17.7 °F /  -7.9 °C 30.01in /  1016.1hPa South 2.0mph /  3.2km/h 3.0mph /  4.8km/h 51% 0.00in /  0mm 0 W/m2
19:28 34.0 °F /  1.1 °C 17.7 °F /  -7.9 °C 30.00in /  1015.8hPa South 2.0mph /  3.2km/h 3.0mph /  4.8km/h 51% 0.00in /  0mm 0 W/m2
19:33 34.0 °F /  1.1 °C 17.7 °F /  -7.9 °C 30.00in /  1015.8hPa SSE 3.0mph /  4.8km/h 5.0mph /  8km/h 51% 0.00in /  0mm 0 W/m2
19:39 34.1 °F /  1.2 °C 18.3 °F /  -7.6 °C 30.00in /  1015.8hPa South 4.0mph /  6.4km/h 4.0mph /  6.4km/h 52% 0.00in /  0mm 0 W/m2
19:45 34.1 °F /  1.2 °C 18.3 °F /  -7.6 °C 30.00in /  1015.8hPa South 4.0mph /  6.4km/h 6.0mph /  9.7km/h 52% 0.00in /  0mm 0 W/m2
19:51 34.1 °F /  1.2 °C 18.7 °F /  -7.4 °C 30.00in /  1015.8hPa SSE 4.0mph /  6.4km/h 7.0mph /  11.3km/h 53% 0.00in /  0mm 0 W/m2
19:58 33.9 °F /  1.1 °C 19.4 °F /  -7 °C 30.00in /  1015.8hPa SSE 6.0mph /  9.7km/h 9.0mph /  14.5km/h 55% 0.00in /  0mm 0 W/m2
20:03 33.7 °F /  0.9 °C 20.5 °F /  -6.4 °C 30.00in /  1015.8hPa SW 8.0mph /  12.9km/h 12.0mph /  19.3km/h 58% 0.00in /  0mm 0 W/m2
20:09 33.5 °F /  0.8 °C 20.7 °F /  -6.3 °C 30.01in /  1016.1hPa South 7.0mph /  11.3km/h 7.0mph /  11.3km/h 59% 0.00in /  0mm 0 W/m2
20:15 33.2 °F /  0.7 °C 21.2 °F /  -6 °C 30.01in /  1016.1hPa SSE 7.0mph /  11.3km/h 8.0mph /  12.9km/h 61% 0.00in /  0mm 0 W/m2
20:22 33.0 °F /  0.6 °C 21.4 °F /  -5.9 °C 30.01in /  1016.1hPa South 6.0mph /  9.7km/h 7.0mph /  11.3km/h 62% 0.00in /  0mm 0 W/m2
20:28 32.8 °F /  0.4 °C 22.0 °F /  -5.6 °C 30.01in /  1016.1hPa SW 4.0mph /  6.4km/h 7.0mph /  11.3km/h 64% 0.00in /  0mm 0 W/m2
20:33 32.7 °F /  0.4 °C 22.2 °F /  -5.4 °C 30.01in /  1016.1hPa SSW 5.0mph /  8km/h 5.0mph /  8km/h 65% 0.00in /  0mm 0 W/m2
20:39 32.5 °F /  0.3 °C 22.8 °F /  -5.1 °C 30.01in /  1016.1hPa SSW 4.0mph /  6.4km/h 5.0mph /  8km/h 67% 0.00in /  0mm 0 W/m2
20:45 32.3 °F /  0.2 °C 22.9 °F /  -5.1 °C 30.01in /  1016.1hPa South 5.0mph /  8km/h 5.0mph /  8km/h 68% 0.00in /  0mm 0 W/m2
20:52 32.1 °F /  0.1 °C 23.1 °F /  -4.9 °C 30.00in /  1015.8hPa SSW 5.0mph /  8km/h 8.0mph /  12.9km/h 69% 0.00in /  0mm 0 W/m2
20:58 32.1 °F /  0.1 °C 23.4 °F /  -4.8 °C 30.00in /  1015.8hPa SSW 5.0mph /  8km/h 8.0mph /  12.9km/h 70% 0.00in /  0mm 0 W/m2
21:03 31.9 °F /  -0.1 °C 23.6 °F /  -4.7 °C 30.00in /  1015.8hPa SW 4.0mph /  6.4km/h 9.0mph /  14.5km/h 71% 0.00in /  0mm 0 W/m2
21:09 31.6 °F /  -0.2 °C 23.9 °F /  -4.5 °C 30.00in /  1015.8hPa South 4.0mph /  6.4km/h 6.0mph /  9.7km/h 73% 0.00in /  0mm 0 W/m2
21:15 31.3 °F /  -0.4 °C 24.0 °F /  -4.4 °C 30.00in /  1015.8hPa SSW 3.0mph /  4.8km/h 6.0mph /  9.7km/h 74% 0.00in /  0mm 0 W/m2
21:21 31.1 °F /  -0.5 °C 24.4 °F /  -4.2 °C 30.00in /  1015.8hPa SW 3.0mph /  4.8km/h 3.0mph /  4.8km/h 76% 0.00in /  0mm 0 W/m2
21:28 31.0 °F /  -0.6 °C 24.6 °F /  -4.1 °C 30.00in /  1015.8hPa SW 2.0mph /  3.2km/h 3.0mph /  4.8km/h 77% 0.00in /  0mm 0 W/m2
21:33 30.8 °F /  -0.7 °C 24.7 °F /  -4.1 °C 30.00in /  1015.8hPa South 2.0mph /  3.2km/h 3.0mph /  4.8km/h 78% 0.00in /  0mm 0 W/m2
21:39 30.7 °F /  -0.7 °C 25.3 °F /  -3.7 °C 30.00in /  1015.8hPa South 2.0mph /  3.2km/h 2.0mph /  3.2km/h 80% 0.00in /  0mm 0 W/m2
21:45 30.4 °F /  -0.9 °C 25.3 °F /  -3.7 °C 29.99in /  1015.5hPa South 1.0mph /  1.6km/h 2.0mph /  3.2km/h 81% 0.00in /  0mm 0 W/m2
21:51 30.2 °F /  -1 °C 25.4 °F /  -3.7 °C 29.98in /  1015.1hPa South 1.0mph /  1.6km/h 1.0mph /  1.6km/h 82% 0.00in /  0mm 0 W/m2
21:58 30.1 °F /  -1.1 °C 25.6 °F /  -3.6 °C 29.98in /  1015.1hPa Calm   1.0mph /  1.6km/h 83% 0.00in /  0mm 0 W/m2
22:03 30.0 °F /  -1.1 °C 25.8 °F /  -3.4 °C 29.98in /  1015.1hPa Calm     84% 0.00in /  0mm 0 W/m2
22:09 29.9 °F /  -1.2 °C 25.7 °F /  -3.5 °C 29.98in /  1015.1hPa Calm     84% 0.00in /  0mm 0 W/m2
22:15 29.8 °F /  -1.2 °C 25.8 °F /  -3.4 °C 29.98in /  1015.1hPa Calm     85% 0.00in /  0mm 0 W/m2
22:21 29.8 °F /  -1.2 °C 25.8 °F /  -3.4 °C 29.98in /  1015.1hPa Calm     85% 0.00in /  0mm 0 W/m2
22:28 29.7 °F /  -1.3 °C 26.0 °F /  -3.3 °C 29.98in /  1015.1hPa Calm     86% 0.00in /  0mm 0 W/m2
22:33 29.6 °F /  -1.3 °C 25.9 °F /  -3.4 °C 29.97in /  1014.8hPa Calm     86% 0.00in /  0mm 0 W/m2
22:39 29.6 °F /  -1.3 °C 25.9 °F /  -3.4 °C 29.97in /  1014.8hPa Calm     86% 0.00in /  0mm 0 W/m2
22:45 29.6 °F /  -1.3 °C 26.2 °F /  -3.2 °C 29.97in /  1014.8hPa Calm     87% 0.00in /  0mm 0 W/m2
22:52 29.5 °F /  -1.4 °C 26.1 °F /  -3.3 °C 29.97in /  1014.8hPa Calm     87% 0.00in /  0mm 0 W/m2
22:58 29.6 °F /  -1.3 °C 26.2 °F /  -3.2 °C 29.97in /  1014.8hPa Calm     87% 0.00in /  0mm 0 W/m2
23:03 29.6 °F /  -1.3 °C 26.2 °F /  -3.2 °C 29.96in /  1014.4hPa Calm     87% 0.00in /  0mm 0 W/m2
23:09 29.5 °F /  -1.4 °C 26.4 °F /  -3.1 °C 29.96in /  1014.4hPa Calm     88% 0.00in /  0mm 0 W/m2
23:15 29.5 °F /  -1.4 °C 26.4 °F /  -3.1 °C 29.95in /  1014.1hPa Calm     88% 0.00in /  0mm 0 W/m2
23:21 29.4 °F /  -1.4 °C 26.3 °F /  -3.2 °C 29.95in /  1014.1hPa Calm     88% 0.00in /  0mm 0 W/m2
23:28 29.5 °F /  -1.4 °C 26.4 °F /  -3.1 °C 29.95in /  1014.1hPa Calm     88% 0.00in /  0mm 0 W/m2
23:33 29.4 °F /  -1.4 °C 26.3 °F /  -3.2 °C 29.95in /  1014.1hPa Calm     88% 0.00in /  0mm 0 W/m2
23:39 29.5 °F /  -1.4 °C 26.4 °F /  -3.1 °C 29.95in /  1014.1hPa Calm     88% 0.00in /  0mm 0 W/m2
23:45 29.5 °F /  -1.4 °C 26.4 °F /  -3.1 °C 29.95in /  1014.1hPa Calm     88% 0.00in /  0mm 0 W/m2
23:52 29.5 °F /  -1.4 °C 26.7 °F /  -2.9 °C 29.94in /  1013.8hPa Calm     89% 0.00in /  0mm 0 W/m2
23:58 29.5 °F /  -1.4 °C 26.7 °F /  -2.9 °C 29.94in /  1013.8hPa Calm     89% 0.00in /  0mm 0 W/m2
Country Meadow, Clay, NY, USA
Compliments of Weather Underground - 2 mb